LTR221 ENBR-ENGC
Flight info
| Callsign | LTR221 |
|---|---|
| Flight time | 0h 44m |
| Altitude | 4000 |
| Route | ADADI |
| Aircraft | A139/L-V/N |
Departure
| Time | 2026-04-30 22:11 |
|---|---|
| Airport | Bergen Airport, Flesland (ENBR) |
Arrival
| Time | 2026-04-30 22:55 |
|---|---|
| Airport | Gullfaks C Helipad (ENGC) |
| Time | Latitude | Longitude | Altitude | Speed | Heading |
|---|---|---|---|---|---|
| 2026-04-30 22:01 | 60.29218 | 5.22407 | 165 ft | 0 kts | 170° |
| 2026-04-30 22:06 | 60.29218 | 5.22408 | 166 ft | 0 kts | 174° |
| 2026-04-30 22:07 | 60.29208 | 5.22373 | 165 ft | 2 kts | 238° |
| 2026-04-30 22:07 | 60.29198 | 5.22355 | 165 ft | 2 kts | 213° |
| 2026-04-30 22:07 | 60.29177 | 5.22317 | 164 ft | 5 kts | 206° |
| 2026-04-30 22:07 | 60.29138 | 5.22311 | 164 ft | 5 kts | 186° |
| 2026-04-30 22:08 | 60.29101 | 5.22274 | 163 ft | 5 kts | 245° |
| 2026-04-30 22:08 | 60.29134 | 5.22219 | 160 ft | 9 kts | 349° |
| 2026-04-30 22:08 | 60.29199 | 5.22195 | 159 ft | 9 kts | 350° |
| 2026-04-30 22:08 | 60.29258 | 5.22173 | 157 ft | 7 kts | 349° |
| 2026-04-30 22:09 | 60.29304 | 5.22155 | 155 ft | 6 kts | 349° |
| 2026-04-30 22:09 | 60.29350 | 5.22129 | 154 ft | 7 kts | 335° |
| 2026-04-30 22:09 | 60.29378 | 5.22045 | 151 ft | 7 kts | 276° |
| 2026-04-30 22:09 | 60.29380 | 5.21973 | 150 ft | 6 kts | 269° |
| 2026-04-30 22:10 | 60.29371 | 5.21864 | 148 ft | 7 kts | 250° |
| 2026-04-30 22:10 | 60.29346 | 5.21814 | 148 ft | 2 kts | 185° |
| 2026-04-30 22:10 | 60.29332 | 5.21812 | 158 ft | 6 kts | 176° |
| 2026-04-30 22:10 | 60.29194 | 5.21832 | 227 ft | 41 kts | 161° |
| 2026-04-30 22:11 | 60.28155 | 5.22325 | 637 ft | 96 kts | 154° |
| 2026-04-30 22:11 | 60.27643 | 5.23061 | 985 ft | 88 kts | 156° |
| 2026-04-30 22:11 | 60.26999 | 5.23096 | 1177 ft | 97 kts | 186° |
| 2026-04-30 22:12 | 60.26367 | 5.22966 | 1492 ft | 89 kts | 180° |
| 2026-04-30 22:12 | 60.25715 | 5.23272 | 1681 ft | 102 kts | 160° |
| 2026-04-30 22:12 | 60.25188 | 5.24113 | 1900 ft | 106 kts | 142° |
| 2026-04-30 22:12 | 60.24369 | 5.24261 | 1932 ft | 137 kts | 198° |
| 2026-04-30 22:13 | 60.23715 | 5.22815 | 2249 ft | 148 kts | 245° |
| 2026-04-30 22:13 | 60.23553 | 5.20788 | 2549 ft | 149 kts | 263° |
| 2026-04-30 22:13 | 60.23599 | 5.18710 | 2797 ft | 150 kts | 270° |
| 2026-04-30 22:13 | 60.23736 | 5.16639 | 3044 ft | 150 kts | 274° |
| 2026-04-30 22:14 | 60.23912 | 5.14590 | 3303 ft | 149 kts | 274° |
| 2026-04-30 22:14 | 60.24104 | 5.12534 | 3549 ft | 149 kts | 275° |
| 2026-04-30 22:14 | 60.24301 | 5.10499 | 3789 ft | 150 kts | 276° |
| 2026-04-30 22:14 | 60.24507 | 5.08436 | 4019 ft | 150 kts | 275° |
| 2026-04-30 22:15 | 60.24853 | 5.06447 | 4027 ft | 156 kts | 292° |
| 2026-04-30 22:15 | 60.25436 | 5.04613 | 4032 ft | 156 kts | 296° |
| 2026-04-30 22:15 | 60.26058 | 5.02831 | 4005 ft | 157 kts | 297° |
| 2026-04-30 22:15 | 60.26704 | 5.01036 | 3994 ft | 157 kts | 298° |
| 2026-04-30 22:16 | 60.27348 | 4.99269 | 3978 ft | 157 kts | 298° |
| 2026-04-30 22:16 | 60.27994 | 4.97508 | 3978 ft | 157 kts | 298° |
| 2026-04-30 22:17 | 60.29932 | 4.92184 | 3988 ft | 156 kts | 297° |
| 2026-04-30 22:17 | 60.30557 | 4.90414 | 3983 ft | 157 kts | 297° |
| 2026-04-30 22:17 | 60.31817 | 4.86845 | 3997 ft | 156 kts | 297° |
| 2026-04-30 22:18 | 60.32443 | 4.85072 | 3987 ft | 156 kts | 297° |
| 2026-04-30 22:18 | 60.33703 | 4.81489 | 3985 ft | 157 kts | 297° |
| 2026-04-30 22:19 | 60.34970 | 4.77887 | 3987 ft | 158 kts | 297° |
| 2026-04-30 22:19 | 60.35606 | 4.76080 | 3994 ft | 158 kts | 297° |
| 2026-04-30 22:19 | 60.36869 | 4.72479 | 4000 ft | 157 kts | 297° |
| 2026-04-30 22:20 | 60.37500 | 4.70678 | 3989 ft | 157 kts | 297° |
| 2026-04-30 22:20 | 60.38766 | 4.67062 | 3985 ft | 157 kts | 297° |
| 2026-04-30 22:20 | 60.39396 | 4.65262 | 3985 ft | 157 kts | 297° |
| 2026-04-30 22:21 | 60.40030 | 4.63501 | 3985 ft | 157 kts | 297° |
| 2026-04-30 22:21 | 60.40675 | 4.61718 | 3977 ft | 157 kts | 298° |
| 2026-04-30 22:21 | 60.41327 | 4.59913 | 3981 ft | 157 kts | 298° |
| 2026-04-30 22:21 | 60.41972 | 4.58134 | 3981 ft | 158 kts | 297° |
| 2026-04-30 22:22 | 60.42616 | 4.56351 | 3982 ft | 158 kts | 297° |
| 2026-04-30 22:22 | 60.43267 | 4.54547 | 3981 ft | 158 kts | 297° |
| 2026-04-30 22:22 | 60.43907 | 4.52770 | 3984 ft | 158 kts | 298° |
| 2026-04-30 22:22 | 60.44559 | 4.50966 | 3983 ft | 157 kts | 297° |
| 2026-04-30 22:23 | 60.45197 | 4.49196 | 3975 ft | 157 kts | 297° |
| 2026-04-30 22:23 | 60.45843 | 4.47399 | 3968 ft | 157 kts | 297° |
| 2026-04-30 22:23 | 60.46492 | 4.45594 | 3961 ft | 158 kts | 297° |
| 2026-04-30 22:23 | 60.47137 | 4.43802 | 3965 ft | 158 kts | 297° |
| 2026-04-30 22:24 | 60.47775 | 4.42023 | 3968 ft | 158 kts | 297° |
| 2026-04-30 22:24 | 60.48426 | 4.40213 | 3971 ft | 157 kts | 297° |
| 2026-04-30 22:24 | 60.49067 | 4.38428 | 3970 ft | 157 kts | 297° |
| 2026-04-30 22:24 | 60.49704 | 4.36649 | 3975 ft | 157 kts | 297° |
| 2026-04-30 22:25 | 60.50348 | 4.34850 | 3973 ft | 156 kts | 296° |
| 2026-04-30 22:25 | 60.50981 | 4.33082 | 3964 ft | 157 kts | 296° |
| 2026-04-30 22:25 | 60.51627 | 4.31276 | 3964 ft | 157 kts | 296° |
| 2026-04-30 22:25 | 60.52263 | 4.29498 | 3961 ft | 157 kts | 296° |
| 2026-04-30 22:26 | 60.53545 | 4.25910 | 3967 ft | 157 kts | 296° |
| 2026-04-30 22:26 | 60.54190 | 4.24101 | 3969 ft | 157 kts | 296° |
| 2026-04-30 22:26 | 60.54827 | 4.22308 | 3969 ft | 157 kts | 296° |
| 2026-04-30 22:27 | 60.55465 | 4.20526 | 3971 ft | 157 kts | 296° |
| 2026-04-30 22:27 | 60.56100 | 4.18738 | 3971 ft | 157 kts | 296° |
| 2026-04-30 22:27 | 60.57377 | 4.15139 | 3968 ft | 157 kts | 296° |
| 2026-04-30 22:28 | 60.58647 | 4.11557 | 3963 ft | 156 kts | 296° |
| 2026-04-30 22:28 | 60.59280 | 4.09775 | 3965 ft | 156 kts | 296° |
| 2026-04-30 22:29 | 60.61174 | 4.04420 | 3955 ft | 156 kts | 295° |
| 2026-04-30 22:29 | 60.61811 | 4.02612 | 3951 ft | 156 kts | 296° |
| 2026-04-30 22:30 | 60.64328 | 3.95474 | 3951 ft | 156 kts | 295° |
| 2026-04-30 22:31 | 60.66222 | 3.90093 | 3953 ft | 156 kts | 295° |
| 2026-04-30 22:32 | 60.68103 | 3.84727 | 3959 ft | 154 kts | 295° |
| 2026-04-30 22:32 | 60.69348 | 3.81171 | 3951 ft | 154 kts | 295° |
| 2026-04-30 22:33 | 60.71215 | 3.75825 | 3941 ft | 154 kts | 294° |
| 2026-04-30 22:33 | 60.72461 | 3.72253 | 3939 ft | 154 kts | 295° |
| 2026-04-30 22:34 | 60.74320 | 3.66915 | 3944 ft | 154 kts | 295° |
| 2026-04-30 22:35 | 60.75556 | 3.63352 | 3941 ft | 154 kts | 294° |
| 2026-04-30 22:36 | 60.78024 | 3.56232 | 3940 ft | 153 kts | 295° |
| 2026-04-30 22:36 | 60.78645 | 3.54442 | 3933 ft | 154 kts | 294° |
| 2026-04-30 22:37 | 60.80505 | 3.49056 | 3938 ft | 154 kts | 294° |
| 2026-04-30 22:37 | 60.81121 | 3.47268 | 3937 ft | 154 kts | 294° |
| 2026-04-30 22:37 | 60.82360 | 3.43675 | 3947 ft | 154 kts | 294° |
| 2026-04-30 22:38 | 60.83591 | 3.40094 | 3931 ft | 154 kts | 294° |
| 2026-04-30 22:38 | 60.84814 | 3.36531 | 3929 ft | 154 kts | 294° |
| 2026-04-30 22:39 | 60.85430 | 3.34737 | 3927 ft | 154 kts | 293° |
| 2026-04-30 22:39 | 60.87268 | 3.29369 | 3920 ft | 153 kts | 293° |
| 2026-04-30 22:40 | 60.89098 | 3.24011 | 3926 ft | 153 kts | 294° |
| 2026-04-30 22:41 | 60.90935 | 3.18631 | 3934 ft | 153 kts | 293° |
| 2026-04-30 22:41 | 60.92155 | 3.15054 | 3931 ft | 152 kts | 292° |
| 2026-04-30 22:42 | 60.94581 | 3.07893 | 3904 ft | 153 kts | 292° |
| 2026-04-30 22:43 | 60.95799 | 3.04298 | 3916 ft | 153 kts | 292° |
| 2026-04-30 22:43 | 60.97008 | 3.00717 | 3907 ft | 152 kts | 292° |
| 2026-04-30 22:44 | 60.98205 | 2.97165 | 3896 ft | 152 kts | 292° |
| 2026-04-30 22:45 | 61.00619 | 2.90002 | 3907 ft | 153 kts | 293° |
| 2026-04-30 22:45 | 61.01831 | 2.86400 | 3911 ft | 152 kts | 292° |
| 2026-04-30 22:46 | 61.03035 | 2.82808 | 3904 ft | 152 kts | 292° |
| 2026-04-30 22:47 | 61.05425 | 2.75666 | 3895 ft | 151 kts | 292° |
| 2026-04-30 22:47 | 61.06622 | 2.72088 | 3892 ft | 151 kts | 291° |
| 2026-04-30 22:48 | 61.07805 | 2.68531 | 3693 ft | 151 kts | 290° |
| 2026-04-30 22:49 | 61.09576 | 2.63176 | 2964 ft | 151 kts | 290° |
| 2026-04-30 22:49 | 61.11337 | 2.57868 | 2246 ft | 149 kts | 289° |
| 2026-04-30 22:50 | 61.13668 | 2.50847 | 1711 ft | 149 kts | 290° |
| 2026-04-30 22:51 | 61.14840 | 2.47294 | 1449 ft | 150 kts | 290° |
| 2026-04-30 22:51 | 61.16024 | 2.43710 | 1205 ft | 152 kts | 290° |
| 2026-04-30 22:52 | 61.16620 | 2.41895 | 1076 ft | 153 kts | 290° |
| 2026-04-30 22:52 | 61.17723 | 2.38620 | 1203 ft | 112 kts | 283° |
| 2026-04-30 22:53 | 61.18782 | 2.36364 | 839 ft | 110 kts | 298° |
| 2026-04-30 22:53 | 61.19923 | 2.34240 | 539 ft | 110 kts | 298° |
| 2026-04-30 22:53 | 61.20464 | 2.33270 | 501 ft | 97 kts | 297° |
| 2026-04-30 22:54 | 61.21333 | 2.31503 | 711 ft | 81 kts | 287° |
| 2026-04-30 22:55 | 61.21859 | 2.28093 | 625 ft | 62 kts | 217° |
| 2026-04-30 22:55 | 61.21652 | 2.27547 | 37 ft | 11 kts | 192° |
| 2026-04-30 22:56 | 61.21473 | 2.27405 | 262 ft | 14 kts | 214° |